sensor_id;sensor_type;location;lat;lon;timestamp;temperature;humidity
22738;DHT22;11536;50.860;4.286;2023-11-21T00:02:12;10.90;99.90
22738;DHT22;11536;50.860;4.286;2023-11-21T00:04:38;10.90;99.90
22738;DHT22;11536;50.860;4.286;2023-11-21T00:07:03;10.90;99.90
22738;DHT22;11536;50.860;4.286;2023-11-21T00:09:29;10.90;99.90
22738;DHT22;11536;50.860;4.286;2023-11-21T00:11:55;10.80;99.90
22738;DHT22;11536;50.860;4.286;2023-11-21T00:14:20;10.70;99.90
22738;DHT22;11536;50.860;4.286;2023-11-21T00:16:46;10.80;99.90
22738;DHT22;11536;50.860;4.286;2023-11-21T00:19:12;10.70;99.90
22738;DHT22;11536;50.860;4.286;2023-11-21T00:21:37;10.70;99.90
22738;DHT22;11536;50.860;4.286;2023-11-21T00:24:03;10.70;99.90
22738;DHT22;11536;50.860;4.286;2023-11-21T00:26:29;10.70;99.90
22738;DHT22;11536;50.860;4.286;2023-11-21T00:28:56;10.70;99.90
22738;DHT22;11536;50.860;4.286;2023-11-21T00:31:22;10.70;99.90
22738;DHT22;11536;50.860;4.286;2023-11-21T00:33:47;10.70;99.90
22738;DHT22;11536;50.860;4.286;2023-11-21T00:36:13;10.70;99.90
22738;DHT22;11536;50.860;4.286;2023-11-21T00:38:39;10.60;99.90
22738;DHT22;11536;50.860;4.286;2023-11-21T00:41:06;10.60;99.90
22738;DHT22;11536;50.860;4.286;2023-11-21T00:43:31;10.60;99.90
22738;DHT22;11536;50.860;4.286;2023-11-21T00:45:59;10.60;99.90
22738;DHT22;11536;50.860;4.286;2023-11-21T00:48:24;10.60;99.90
22738;DHT22;11536;50.860;4.286;2023-11-21T00:50:50;10.60;99.90
22738;DHT22;11536;50.860;4.286;2023-11-21T00:53:15;10.50;99.90
22738;DHT22;11536;50.860;4.286;2023-11-21T00:55:41;10.50;99.90
22738;DHT22;11536;50.860;4.286;2023-11-21T00:58:07;10.50;99.90
22738;DHT22;11536;50.860;4.286;2023-11-21T01:00:33;10.50;99.90
22738;DHT22;11536;50.860;4.286;2023-11-21T01:02:59;10.50;99.90
22738;DHT22;11536;50.860;4.286;2023-11-21T01:05:25;10.50;99.90
22738;DHT22;11536;50.860;4.286;2023-11-21T01:07:51;10.50;99.90
22738;DHT22;11536;50.860;4.286;2023-11-21T01:10:16;10.50;99.90
22738;DHT22;11536;50.860;4.286;2023-11-21T01:12:43;10.50;99.90
22738;DHT22;11536;50.860;4.286;2023-11-21T01:15:08;10.50;99.90
22738;DHT22;11536;50.860;4.286;2023-11-21T01:17:34;10.50;99.90
22738;DHT22;11536;50.860;4.286;2023-11-21T01:20:02;10.50;99.90
22738;DHT22;11536;50.860;4.286;2023-11-21T01:22:28;10.50;99.90
22738;DHT22;11536;50.860;4.286;2023-11-21T01:24:54;10.60;99.90
22738;DHT22;11536;50.860;4.286;2023-11-21T01:27:20;10.60;99.90
22738;DHT22;11536;50.860;4.286;2023-11-21T01:29:46;10.60;99.90
22738;DHT22;11536;50.860;4.286;2023-11-21T01:32:11;10.60;99.90
22738;DHT22;11536;50.860;4.286;2023-11-21T01:34:37;10.60;99.90
22738;DHT22;11536;50.860;4.286;2023-11-21T01:37:03;10.60;99.90
22738;DHT22;11536;50.860;4.286;2023-11-21T01:39:31;10.60;99.90
22738;DHT22;11536;50.860;4.286;2023-11-21T01:41:57;10.60;99.90
22738;DHT22;11536;50.860;4.286;2023-11-21T01:44:26;10.60;99.90
22738;DHT22;11536;50.860;4.286;2023-11-21T01:46:52;10.60;99.90
22738;DHT22;11536;50.860;4.286;2023-11-21T01:49:19;10.70;99.90
22738;DHT22;11536;50.860;4.286;2023-11-21T01:51:48;10.70;99.90
22738;DHT22;11536;50.860;4.286;2023-11-21T01:54:15;10.70;99.90
22738;DHT22;11536;50.860;4.286;2023-11-21T01:56:44;10.70;99.90
22738;DHT22;11536;50.860;4.286;2023-11-21T01:59:12;10.70;99.90
22738;DHT22;11536;50.860;4.286;2023-11-21T02:01:39;10.70;99.90
22738;DHT22;11536;50.860;4.286;2023-11-21T02:04:05;10.70;99.90
22738;DHT22;11536;50.860;4.286;2023-11-21T02:06:30;10.70;99.90
22738;DHT22;11536;50.860;4.286;2023-11-21T02:08:56;10.70;99.90
22738;DHT22;11536;50.860;4.286;2023-11-21T02:11:22;10.70;99.90
22738;DHT22;11536;50.860;4.286;2023-11-21T02:13:47;10.70;99.90
22738;DHT22;11536;50.860;4.286;2023-11-21T02:16:15;10.70;99.90
22738;DHT22;11536;50.860;4.286;2023-11-21T02:18:40;10.70;99.90
22738;DHT22;11536;50.860;4.286;2023-11-21T02:21:07;10.70;99.90
22738;DHT22;11536;50.860;4.286;2023-11-21T02:23:33;10.70;99.90
22738;DHT22;11536;50.860;4.286;2023-11-21T02:25:59;10.70;99.90
22738;DHT22;11536;50.860;4.286;2023-11-21T02:28:24;10.70;99.90
22738;DHT22;11536;50.860;4.286;2023-11-21T02:30:53;10.70;99.90
22738;DHT22;11536;50.860;4.286;2023-11-21T02:33:23;10.70;99.90
22738;DHT22;11536;50.860;4.286;2023-11-21T02:35:48;10.70;99.90
22738;DHT22;11536;50.860;4.286;2023-11-21T02:38:14;10.70;99.90
22738;DHT22;11536;50.860;4.286;2023-11-21T02:40:41;10.80;99.90
22738;DHT22;11536;50.860;4.286;2023-11-21T02:43:07;10.80;99.90
22738;DHT22;11536;50.860;4.286;2023-11-21T02:45:32;10.80;99.90
22738;DHT22;11536;50.860;4.286;2023-11-21T02:47:58;10.80;99.90
22738;DHT22;11536;50.860;4.286;2023-11-21T02:50:24;10.80;99.90
22738;DHT22;11536;50.860;4.286;2023-11-21T02:52:50;10.80;99.90
22738;DHT22;11536;50.860;4.286;2023-11-21T02:55:16;10.80;99.90
22738;DHT22;11536;50.860;4.286;2023-11-21T02:57:42;10.80;99.90
22738;DHT22;11536;50.860;4.286;2023-11-21T03:00:08;10.80;99.90
22738;DHT22;11536;50.860;4.286;2023-11-21T03:02:35;10.80;99.90
22738;DHT22;11536;50.860;4.286;2023-11-21T03:05:05;10.80;99.90
22738;DHT22;11536;50.860;4.286;2023-11-21T03:07:31;10.80;99.90
22738;DHT22;11536;50.860;4.286;2023-11-21T03:09:56;10.80;99.90
22738;DHT22;11536;50.860;4.286;2023-11-21T03:12:23;10.80;99.90
22738;DHT22;11536;50.860;4.286;2023-11-21T03:14:48;10.80;99.90
22738;DHT22;11536;50.860;4.286;2023-11-21T03:17:14;10.80;99.90
22738;DHT22;11536;50.860;4.286;2023-11-21T03:19:41;10.80;99.90
22738;DHT22;11536;50.860;4.286;2023-11-21T03:22:07;10.80;99.90
22738;DHT22;11536;50.860;4.286;2023-11-21T03:24:34;10.80;99.90
22738;DHT22;11536;50.860;4.286;2023-11-21T03:27:00;10.80;99.90
22738;DHT22;11536;50.860;4.286;2023-11-21T03:29:25;10.80;99.90
22738;DHT22;11536;50.860;4.286;2023-11-21T03:31:51;10.80;99.90
22738;DHT22;11536;50.860;4.286;2023-11-21T03:34:24;10.80;99.90
22738;DHT22;11536;50.860;4.286;2023-11-21T03:36:51;10.90;99.90
22738;DHT22;11536;50.860;4.286;2023-11-21T03:39:18;10.80;99.90
22738;DHT22;11536;50.860;4.286;2023-11-21T03:41:44;10.90;99.90
22738;DHT22;11536;50.860;4.286;2023-11-21T03:44:10;10.90;99.90
22738;DHT22;11536;50.860;4.286;2023-11-21T03:46:36;10.90;99.90
22738;DHT22;11536;50.860;4.286;2023-11-21T03:49:01;10.90;99.90
22738;DHT22;11536;50.860;4.286;2023-11-21T03:51:27;10.90;99.90
22738;DHT22;11536;50.860;4.286;2023-11-21T03:53:53;10.90;99.90
22738;DHT22;11536;50.860;4.286;2023-11-21T03:56:19;10.90;99.90
22738;DHT22;11536;50.860;4.286;2023-11-21T03:58:47;10.90;99.90
22738;DHT22;11536;50.860;4.286;2023-11-21T04:01:24;10.90;99.90
22738;DHT22;11536;50.860;4.286;2023-11-21T04:03:50;11.00;99.90
22738;DHT22;11536;50.860;4.286;2023-11-21T04:06:17;11.00;99.90
22738;DHT22;11536;50.860;4.286;2023-11-21T04:08:43;10.90;99.90
22738;DHT22;11536;50.860;4.286;2023-11-21T04:11:10;10.90;99.90
22738;DHT22;11536;50.860;4.286;2023-11-21T04:13:38;11.00;99.90
22738;DHT22;11536;50.860;4.286;2023-11-21T04:16:05;11.00;99.90
22738;DHT22;11536;50.860;4.286;2023-11-21T04:18:31;10.90;99.90
22738;DHT22;11536;50.860;4.286;2023-11-21T04:20:56;11.00;99.90
22738;DHT22;11536;50.860;4.286;2023-11-21T04:23:22;10.90;99.90
22738;DHT22;11536;50.860;4.286;2023-11-21T04:25:48;10.90;99.90
22738;DHT22;11536;50.860;4.286;2023-11-21T04:28:13;10.90;99.90
22738;DHT22;11536;50.860;4.286;2023-11-21T04:30:39;10.90;99.90
22738;DHT22;11536;50.860;4.286;2023-11-21T04:33:05;10.90;99.90
22738;DHT22;11536;50.860;4.286;2023-11-21T04:35:30;10.90;99.90
22738;DHT22;11536;50.860;4.286;2023-11-21T04:37:56;10.90;99.90
22738;DHT22;11536;50.860;4.286;2023-11-21T04:40:22;10.90;99.90
22738;DHT22;11536;50.860;4.286;2023-11-21T04:42:48;10.90;99.90
22738;DHT22;11536;50.860;4.286;2023-11-21T04:45:14;10.90;99.90
22738;DHT22;11536;50.860;4.286;2023-11-21T04:47:39;10.90;99.90
22738;DHT22;11536;50.860;4.286;2023-11-21T04:50:05;10.90;99.90
22738;DHT22;11536;50.860;4.286;2023-11-21T04:52:31;10.90;99.90
22738;DHT22;11536;50.860;4.286;2023-11-21T04:54:58;10.90;99.90
22738;DHT22;11536;50.860;4.286;2023-11-21T04:57:26;10.90;99.90
22738;DHT22;11536;50.860;4.286;2023-11-21T04:59:54;10.90;99.90
22738;DHT22;11536;50.860;4.286;2023-11-21T05:02:19;10.90;99.90
22738;DHT22;11536;50.860;4.286;2023-11-21T05:04:47;10.90;99.90
22738;DHT22;11536;50.860;4.286;2023-11-21T05:07:13;10.90;99.90
22738;DHT22;11536;50.860;4.286;2023-11-21T05:09:45;10.90;99.90
22738;DHT22;11536;50.860;4.286;2023-11-21T05:12:12;10.90;99.90
22738;DHT22;11536;50.860;4.286;2023-11-21T05:14:38;10.90;99.90
22738;DHT22;11536;50.860;4.286;2023-11-21T05:17:04;10.90;99.90
22738;DHT22;11536;50.860;4.286;2023-11-21T05:19:29;10.90;99.90
22738;DHT22;11536;50.860;4.286;2023-11-21T05:21:55;10.90;99.90
22738;DHT22;11536;50.860;4.286;2023-11-21T05:24:21;10.90;99.90
22738;DHT22;11536;50.860;4.286;2023-11-21T05:26:46;10.90;99.90
22738;DHT22;11536;50.860;4.286;2023-11-21T05:29:12;10.90;99.90
22738;DHT22;11536;50.860;4.286;2023-11-21T05:31:37;10.90;99.90
22738;DHT22;11536;50.860;4.286;2023-11-21T05:34:04;10.90;99.90
22738;DHT22;11536;50.860;4.286;2023-11-21T05:36:30;10.90;99.90
22738;DHT22;11536;50.860;4.286;2023-11-21T05:38:56;10.90;99.90
22738;DHT22;11536;50.860;4.286;2023-11-21T05:41:22;10.90;99.90
22738;DHT22;11536;50.860;4.286;2023-11-21T05:43:48;10.90;99.90
22738;DHT22;11536;50.860;4.286;2023-11-21T05:46:14;11.00;99.90
22738;DHT22;11536;50.860;4.286;2023-11-21T05:48:40;10.90;99.90
22738;DHT22;11536;50.860;4.286;2023-11-21T05:51:06;10.90;99.90
22738;DHT22;11536;50.860;4.286;2023-11-21T05:53:32;10.90;99.90
22738;DHT22;11536;50.860;4.286;2023-11-21T05:55:57;11.00;99.90
22738;DHT22;11536;50.860;4.286;2023-11-21T05:58:23;11.00;99.90
22738;DHT22;11536;50.860;4.286;2023-11-21T06:00:49;10.90;99.90
22738;DHT22;11536;50.860;4.286;2023-11-21T06:03:15;10.90;99.90
22738;DHT22;11536;50.860;4.286;2023-11-21T06:05:40;10.90;99.90
22738;DHT22;11536;50.860;4.286;2023-11-21T06:08:06;10.90;99.90
22738;DHT22;11536;50.860;4.286;2023-11-21T06:10:32;10.90;99.90
22738;DHT22;11536;50.860;4.286;2023-11-21T06:12:58;10.90;99.90
22738;DHT22;11536;50.860;4.286;2023-11-21T06:15:23;10.90;99.90
22738;DHT22;11536;50.860;4.286;2023-11-21T06:17:49;10.90;99.90
22738;DHT22;11536;50.860;4.286;2023-11-21T06:20:18;10.90;99.90
22738;DHT22;11536;50.860;4.286;2023-11-21T06:22:47;11.00;99.90
22738;DHT22;11536;50.860;4.286;2023-11-21T06:25:13;11.00;99.90
22738;DHT22;11536;50.860;4.286;2023-11-21T06:27:41;11.00;99.90
22738;DHT22;11536;50.860;4.286;2023-11-21T06:30:07;11.00;99.90
22738;DHT22;11536;50.860;4.286;2023-11-21T06:32:35;11.00;99.90
22738;DHT22;11536;50.860;4.286;2023-11-21T06:35:02;11.00;99.90
22738;DHT22;11536;50.860;4.286;2023-11-21T06:37:29;11.00;99.90
22738;DHT22;11536;50.860;4.286;2023-11-21T06:39:56;11.00;99.90
22738;DHT22;11536;50.860;4.286;2023-11-21T06:42:24;11.00;99.90
22738;DHT22;11536;50.860;4.286;2023-11-21T06:44:50;11.00;99.90
22738;DHT22;11536;50.860;4.286;2023-11-21T06:47:17;11.00;99.90
22738;DHT22;11536;50.860;4.286;2023-11-21T06:49:43;11.00;99.90
22738;DHT22;11536;50.860;4.286;2023-11-21T06:52:09;11.00;99.90
22738;DHT22;11536;50.860;4.286;2023-11-21T06:54:36;11.00;99.90
22738;DHT22;11536;50.860;4.286;2023-11-21T06:57:02;11.00;99.90
22738;DHT22;11536;50.860;4.286;2023-11-21T06:59:31;11.00;99.90
22738;DHT22;11536;50.860;4.286;2023-11-21T07:01:57;11.00;99.90
22738;DHT22;11536;50.860;4.286;2023-11-21T07:04:22;11.10;99.90
22738;DHT22;11536;50.860;4.286;2023-11-21T07:06:49;11.00;99.90
22738;DHT22;11536;50.860;4.286;2023-11-21T07:09:15;11.00;99.90
22738;DHT22;11536;50.860;4.286;2023-11-21T07:11:41;11.10;99.90
22738;DHT22;11536;50.860;4.286;2023-11-21T07:14:07;11.10;99.90
22738;DHT22;11536;50.860;4.286;2023-11-21T07:16:34;11.10;99.90
22738;DHT22;11536;50.860;4.286;2023-11-21T07:19:06;11.10;99.90
22738;DHT22;11536;50.860;4.286;2023-11-21T07:21:32;11.10;99.90
22738;DHT22;11536;50.860;4.286;2023-11-21T07:24:02;11.10;99.90
22738;DHT22;11536;50.860;4.286;2023-11-21T07:26:28;11.10;99.90
22738;DHT22;11536;50.860;4.286;2023-11-21T07:28:54;11.10;99.90
22738;DHT22;11536;50.860;4.286;2023-11-21T07:31:20;11.10;99.90
22738;DHT22;11536;50.860;4.286;2023-11-21T07:33:47;11.10;99.90
22738;DHT22;11536;50.860;4.286;2023-11-21T07:36:13;11.00;99.90
22738;DHT22;11536;50.860;4.286;2023-11-21T07:38:39;11.00;99.90
22738;DHT22;11536;50.860;4.286;2023-11-21T07:41:05;11.00;99.90
22738;DHT22;11536;50.860;4.286;2023-11-21T07:43:34;11.00;99.90
22738;DHT22;11536;50.860;4.286;2023-11-21T07:46:04;11.10;99.90
22738;DHT22;11536;50.860;4.286;2023-11-21T07:48:31;11.10;99.90
22738;DHT22;11536;50.860;4.286;2023-11-21T07:50:57;11.00;99.90
22738;DHT22;11536;50.860;4.286;2023-11-21T07:53:26;11.00;99.90
22738;DHT22;11536;50.860;4.286;2023-11-21T07:55:55;11.10;99.90
22738;DHT22;11536;50.860;4.286;2023-11-21T07:58:21;11.10;99.90
22738;DHT22;11536;50.860;4.286;2023-11-21T08:00:46;11.10;99.90
22738;DHT22;11536;50.860;4.286;2023-11-21T08:03:16;11.10;99.90
22738;DHT22;11536;50.860;4.286;2023-11-21T08:05:42;11.20;99.90
22738;DHT22;11536;50.860;4.286;2023-11-21T08:08:08;11.20;99.90
22738;DHT22;11536;50.860;4.286;2023-11-21T08:10:34;11.20;99.90
22738;DHT22;11536;50.860;4.286;2023-11-21T08:13:01;11.20;99.90
22738;DHT22;11536;50.860;4.286;2023-11-21T08:15:27;11.20;99.90
22738;DHT22;11536;50.860;4.286;2023-11-21T08:17:52;11.30;99.90
22738;DHT22;11536;50.860;4.286;2023-11-21T08:20:18;11.20;99.90
22738;DHT22;11536;50.860;4.286;2023-11-21T08:22:44;11.30;99.90
22738;DHT22;11536;50.860;4.286;2023-11-21T08:25:10;11.20;99.90
22738;DHT22;11536;50.860;4.286;2023-11-21T08:27:35;11.20;99.90
22738;DHT22;11536;50.860;4.286;2023-11-21T08:30:02;11.20;99.90
22738;DHT22;11536;50.860;4.286;2023-11-21T08:32:29;11.30;99.90
22738;DHT22;11536;50.860;4.286;2023-11-21T08:34:57;11.30;99.90
22738;DHT22;11536;50.860;4.286;2023-11-21T08:37:23;11.30;99.90
22738;DHT22;11536;50.860;4.286;2023-11-21T08:39:49;11.30;99.90
22738;DHT22;11536;50.860;4.286;2023-11-21T08:42:15;11.40;99.90
22738;DHT22;11536;50.860;4.286;2023-11-21T08:44:40;11.40;99.90
22738;DHT22;11536;50.860;4.286;2023-11-21T08:47:06;11.40;99.90
22738;DHT22;11536;50.860;4.286;2023-11-21T08:49:32;11.40;99.90
22738;DHT22;11536;50.860;4.286;2023-11-21T08:51:58;11.40;99.90
22738;DHT22;11536;50.860;4.286;2023-11-21T08:54:25;11.30;99.90
22738;DHT22;11536;50.860;4.286;2023-11-21T08:56:52;11.40;99.90
22738;DHT22;11536;50.860;4.286;2023-11-21T08:59:17;11.40;99.90
22738;DHT22;11536;50.860;4.286;2023-11-21T09:01:43;11.40;99.90
22738;DHT22;11536;50.860;4.286;2023-11-21T09:04:08;11.40;99.90
22738;DHT22;11536;50.860;4.286;2023-11-21T09:06:34;11.40;99.90
22738;DHT22;11536;50.860;4.286;2023-11-21T09:09:00;11.50;99.90
22738;DHT22;11536;50.860;4.286;2023-11-21T09:11:26;11.50;99.90
22738;DHT22;11536;50.860;4.286;2023-11-21T09:13:56;11.50;99.90
22738;DHT22;11536;50.860;4.286;2023-11-21T09:16:23;11.50;99.90
22738;DHT22;11536;50.860;4.286;2023-11-21T09:18:48;11.50;99.90
22738;DHT22;11536;50.860;4.286;2023-11-21T09:21:14;11.50;99.90
22738;DHT22;11536;50.860;4.286;2023-11-21T09:23:40;11.50;99.90
22738;DHT22;11536;50.860;4.286;2023-11-21T09:26:05;11.50;99.90
22738;DHT22;11536;50.860;4.286;2023-11-21T09:28:31;11.60;99.90
22738;DHT22;11536;50.860;4.286;2023-11-21T09:30:56;11.60;99.90
22738;DHT22;11536;50.860;4.286;2023-11-21T09:33:22;11.60;99.90
22738;DHT22;11536;50.860;4.286;2023-11-21T09:35:50;11.60;99.90
22738;DHT22;11536;50.860;4.286;2023-11-21T09:38:16;11.60;99.90
22738;DHT22;11536;50.860;4.286;2023-11-21T09:40:42;11.70;99.90
22738;DHT22;11536;50.860;4.286;2023-11-21T09:43:16;11.70;99.90
22738;DHT22;11536;50.860;4.286;2023-11-21T09:45:46;11.70;99.90
22738;DHT22;11536;50.860;4.286;2023-11-21T09:48:13;11.70;99.90
22738;DHT22;11536;50.860;4.286;2023-11-21T09:50:41;11.70;99.90
22738;DHT22;11536;50.860;4.286;2023-11-21T09:53:15;11.70;99.90
22738;DHT22;11536;50.860;4.286;2023-11-21T09:55:44;11.70;99.90
22738;DHT22;11536;50.860;4.286;2023-11-21T09:58:11;11.80;99.90
22738;DHT22;11536;50.860;4.286;2023-11-21T10:00:41;11.70;99.90
22738;DHT22;11536;50.860;4.286;2023-11-21T10:03:08;11.70;99.90
22738;DHT22;11536;50.860;4.286;2023-11-21T10:05:35;11.70;99.90
22738;DHT22;11536;50.860;4.286;2023-11-21T10:08:00;11.70;99.90
22738;DHT22;11536;50.860;4.286;2023-11-21T10:10:27;11.70;99.90
22738;DHT22;11536;50.860;4.286;2023-11-21T10:12:56;11.70;99.90
22738;DHT22;11536;50.860;4.286;2023-11-21T10:15:23;11.70;99.90
22738;DHT22;11536;50.860;4.286;2023-11-21T10:17:52;11.70;99.90
22738;DHT22;11536;50.860;4.286;2023-11-21T10:20:19;11.60;99.90
22738;DHT22;11536;50.860;4.286;2023-11-21T10:22:45;11.60;99.90
22738;DHT22;11536;50.860;4.286;2023-11-21T10:25:12;11.70;99.90
22738;DHT22;11536;50.860;4.286;2023-11-21T10:27:40;11.70;99.90
22738;DHT22;11536;50.860;4.286;2023-11-21T10:30:07;11.70;99.90
22738;DHT22;11536;50.860;4.286;2023-11-21T10:32:41;11.70;99.90
22738;DHT22;11536;50.860;4.286;2023-11-21T10:35:10;11.70;99.90
22738;DHT22;11536;50.860;4.286;2023-11-21T10:37:39;11.70;99.90
22738;DHT22;11536;50.860;4.286;2023-11-21T10:40:09;11.80;99.90
22738;DHT22;11536;50.860;4.286;2023-11-21T10:42:37;11.80;99.90
22738;DHT22;11536;50.860;4.286;2023-11-21T10:45:04;11.90;99.90
22738;DHT22;11536;50.860;4.286;2023-11-21T10:47:35;11.90;99.90
22738;DHT22;11536;50.860;4.286;2023-11-21T10:50:01;11.90;99.90
22738;DHT22;11536;50.860;4.286;2023-11-21T10:52:27;11.90;99.90
22738;DHT22;11536;50.860;4.286;2023-11-21T10:54:53;11.90;99.90
22738;DHT22;11536;50.860;4.286;2023-11-21T10:57:20;12.00;99.90
22738;DHT22;11536;50.860;4.286;2023-11-21T10:59:47;12.00;99.90
22738;DHT22;11536;50.860;4.286;2023-11-21T11:02:24;12.10;99.90
22738;DHT22;11536;50.860;4.286;2023-11-21T11:04:54;12.10;99.90
22738;DHT22;11536;50.860;4.286;2023-11-21T11:07:26;12.20;99.90
22738;DHT22;11536;50.860;4.286;2023-11-21T11:09:54;12.20;99.90
22738;DHT22;11536;50.860;4.286;2023-11-21T11:12:20;12.20;99.90
22738;DHT22;11536;50.860;4.286;2023-11-21T11:14:48;12.20;99.90
22738;DHT22;11536;50.860;4.286;2023-11-21T11:17:14;12.20;99.90
22738;DHT22;11536;50.860;4.286;2023-11-21T11:19:39;12.20;99.90
22738;DHT22;11536;50.860;4.286;2023-11-21T11:22:28;12.20;99.90
22738;DHT22;11536;50.860;4.286;2023-11-21T11:32:55;12.30;99.90
22738;DHT22;11536;50.860;4.286;2023-11-21T11:35:35;12.30;99.90
22738;DHT22;11536;50.860;4.286;2023-11-21T11:38:03;12.30;99.90
22738;DHT22;11536;50.860;4.286;2023-11-21T11:40:39;12.30;99.90
22738;DHT22;11536;50.860;4.286;2023-11-21T11:43:06;12.30;99.90
22738;DHT22;11536;50.860;4.286;2023-11-21T11:45:33;12.30;99.90
22738;DHT22;11536;50.860;4.286;2023-11-21T11:48:02;12.30;99.90
22738;DHT22;11536;50.860;4.286;2023-11-21T11:50:29;12.30;99.90
22738;DHT22;11536;50.860;4.286;2023-11-21T11:52:57;12.30;99.90
22738;DHT22;11536;50.860;4.286;2023-11-21T11:55:36;12.30;99.90
22738;DHT22;11536;50.860;4.286;2023-11-21T11:58:06;12.20;99.90
22738;DHT22;11536;50.860;4.286;2023-11-21T12:03:00;12.20;99.90
22738;DHT22;11536;50.860;4.286;2023-11-21T12:05:29;12.20;99.90
22738;DHT22;11536;50.860;4.286;2023-11-21T12:08:03;12.20;99.90
22738;DHT22;11536;50.860;4.286;2023-11-21T12:10:31;12.20;99.90
22738;DHT22;11536;50.860;4.286;2023-11-21T12:13:07;12.20;99.90
22738;DHT22;11536;50.860;4.286;2023-11-21T12:15:33;12.20;99.90
22738;DHT22;11536;50.860;4.286;2023-11-21T12:18:00;12.20;99.90
22738;DHT22;11536;50.860;4.286;2023-11-21T12:20:27;12.20;99.90
22738;DHT22;11536;50.860;4.286;2023-11-21T12:22:55;12.10;99.90
22738;DHT22;11536;50.860;4.286;2023-11-21T12:25:23;12.10;99.90
22738;DHT22;11536;50.860;4.286;2023-11-21T12:27:51;12.10;99.90
22738;DHT22;11536;50.860;4.286;2023-11-21T12:30:19;12.10;99.90
22738;DHT22;11536;50.860;4.286;2023-11-21T12:32:47;12.10;99.90
22738;DHT22;11536;50.860;4.286;2023-11-21T12:35:14;12.10;99.90
22738;DHT22;11536;50.860;4.286;2023-11-21T12:37:41;12.10;99.90
22738;DHT22;11536;50.860;4.286;2023-11-21T12:40:09;12.10;99.90
22738;DHT22;11536;50.860;4.286;2023-11-21T12:42:48;12.10;99.90
22738;DHT22;11536;50.860;4.286;2023-11-21T12:47:50;12.10;99.90
22738;DHT22;11536;50.860;4.286;2023-11-21T12:50:19;12.10;99.90
22738;DHT22;11536;50.860;4.286;2023-11-21T12:52:50;12.10;99.90
22738;DHT22;11536;50.860;4.286;2023-11-21T12:55:20;12.10;99.90
22738;DHT22;11536;50.860;4.286;2023-11-21T12:57:51;12.10;99.90
22738;DHT22;11536;50.860;4.286;2023-11-21T13:00:20;12.10;99.90
22738;DHT22;11536;50.860;4.286;2023-11-21T13:02:56;12.10;99.90
22738;DHT22;11536;50.860;4.286;2023-11-21T13:05:30;12.10;99.90
22738;DHT22;11536;50.860;4.286;2023-11-21T13:08:01;12.10;99.90
22738;DHT22;11536;50.860;4.286;2023-11-21T13:10:34;12.10;99.90
22738;DHT22;11536;50.860;4.286;2023-11-21T13:13:02;12.10;99.90
22738;DHT22;11536;50.860;4.286;2023-11-21T13:15:31;12.20;99.90
22738;DHT22;11536;50.860;4.286;2023-11-21T13:17:58;12.20;99.90
22738;DHT22;11536;50.860;4.286;2023-11-21T13:20:28;12.20;99.90
22738;DHT22;11536;50.860;4.286;2023-11-21T13:22:56;12.20;99.90
22738;DHT22;11536;50.860;4.286;2023-11-21T13:25:27;12.30;99.90
22738;DHT22;11536;50.860;4.286;2023-11-21T13:27:56;12.30;99.90
22738;DHT22;11536;50.860;4.286;2023-11-21T13:30:23;12.20;99.90
22738;DHT22;11536;50.860;4.286;2023-11-21T13:32:53;12.30;99.90
22738;DHT22;11536;50.860;4.286;2023-11-21T13:35:23;12.30;99.90
22738;DHT22;11536;50.860;4.286;2023-11-21T13:38:21;12.30;99.90
22738;DHT22;11536;50.860;4.286;2023-11-21T13:40:53;12.30;99.90
22738;DHT22;11536;50.860;4.286;2023-11-21T13:43:23;12.20;99.90
22738;DHT22;11536;50.860;4.286;2023-11-21T13:45:54;12.20;99.90
22738;DHT22;11536;50.860;4.286;2023-11-21T13:48:38;12.20;99.90
22738;DHT22;11536;50.860;4.286;2023-11-21T13:51:08;12.20;99.90
22738;DHT22;11536;50.860;4.286;2023-11-21T13:53:45;12.20;99.90
22738;DHT22;11536;50.860;4.286;2023-11-21T13:56:19;12.10;99.90
22738;DHT22;11536;50.860;4.286;2023-11-21T13:58:53;12.10;99.90
22738;DHT22;11536;50.860;4.286;2023-11-21T14:01:24;12.10;99.90
22738;DHT22;11536;50.860;4.286;2023-11-21T14:03:58;12.10;99.90
22738;DHT22;11536;50.860;4.286;2023-11-21T14:06:46;12.10;99.90
22738;DHT22;11536;50.860;4.286;2023-11-21T14:09:18;12.10;99.90
22738;DHT22;11536;50.860;4.286;2023-11-21T14:11:56;12.00;99.90
22738;DHT22;11536;50.860;4.286;2023-11-21T14:14:24;12.00;99.90
22738;DHT22;11536;50.860;4.286;2023-11-21T14:16:51;12.00;99.90
22738;DHT22;11536;50.860;4.286;2023-11-21T14:19:17;12.10;99.90
22738;DHT22;11536;50.860;4.286;2023-11-21T14:21:43;12.10;99.90
22738;DHT22;11536;50.860;4.286;2023-11-21T14:24:10;12.10;99.90
22738;DHT22;11536;50.860;4.286;2023-11-21T14:26:35;12.10;99.90
22738;DHT22;11536;50.860;4.286;2023-11-21T14:29:01;12.10;99.90
22738;DHT22;11536;50.860;4.286;2023-11-21T14:31:28;12.10;99.90
22738;DHT22;11536;50.860;4.286;2023-11-21T14:33:56;12.10;99.90
22738;DHT22;11536;50.860;4.286;2023-11-21T14:36:22;12.10;99.90
22738;DHT22;11536;50.860;4.286;2023-11-21T14:38:49;12.10;99.90
22738;DHT22;11536;50.860;4.286;2023-11-21T14:41:15;12.00;99.90
22738;DHT22;11536;50.860;4.286;2023-11-21T14:43:40;12.00;99.90
22738;DHT22;11536;50.860;4.286;2023-11-21T14:46:07;12.00;99.90
22738;DHT22;11536;50.860;4.286;2023-11-21T14:48:35;12.00;99.90
22738;DHT22;11536;50.860;4.286;2023-11-21T14:51:09;12.00;99.90
22738;DHT22;11536;50.860;4.286;2023-11-21T14:53:40;12.00;99.90
22738;DHT22;11536;50.860;4.286;2023-11-21T14:56:22;11.90;99.90
22738;DHT22;11536;50.860;4.286;2023-11-21T14:58:58;11.90;99.90
22738;DHT22;11536;50.860;4.286;2023-11-21T15:01:42;11.90;99.90
22738;DHT22;11536;50.860;4.286;2023-11-21T15:04:30;11.90;99.90
22738;DHT22;11536;50.860;4.286;2023-11-21T15:07:04;11.90;99.90
22738;DHT22;11536;50.860;4.286;2023-11-21T15:09:30;11.90;99.90
22738;DHT22;11536;50.860;4.286;2023-11-21T15:12:00;11.90;99.90
22738;DHT22;11536;50.860;4.286;2023-11-21T15:14:47;11.90;99.90
22738;DHT22;11536;50.860;4.286;2023-11-21T15:17:18;11.90;99.90
22738;DHT22;11536;50.860;4.286;2023-11-21T15:19:51;11.90;99.90
22738;DHT22;11536;50.860;4.286;2023-11-21T15:22:17;11.90;99.90
22738;DHT22;11536;50.860;4.286;2023-11-21T15:24:43;11.90;99.90
22738;DHT22;11536;50.860;4.286;2023-11-21T15:27:12;11.80;99.90
22738;DHT22;11536;50.860;4.286;2023-11-21T15:29:41;11.80;99.90
22738;DHT22;11536;50.860;4.286;2023-11-21T15:32:07;11.80;99.90
22738;DHT22;11536;50.860;4.286;2023-11-21T15:34:36;11.80;99.90
22738;DHT22;11536;50.860;4.286;2023-11-21T15:37:03;11.90;99.90
22738;DHT22;11536;50.860;4.286;2023-11-21T15:39:30;11.80;99.90
22738;DHT22;11536;50.860;4.286;2023-11-21T15:41:59;11.80;99.90
22738;DHT22;11536;50.860;4.286;2023-11-21T15:44:26;11.80;99.90
22738;DHT22;11536;50.860;4.286;2023-11-21T15:46:53;11.80;99.90